Latest Coastal Weather Observations for Swan Island

IDT60701

Issued at 12:42 pm EST Sunday 28 May 2017 (issued every 10 minutes, with the page automatically refreshed every 10 minutes)

About coastal observations | Map of coastal stations | Coastal observations for TAS | Marine services | Other Formats
Station Details ID: 092123 Name: SWAN ISLAND Lat: -40.73 Lon: 148.12 Height: 15.0 m
Data from the previous 72 hours. | See also: Recent months at Swan Island
Date/Time
EST
Temp
°C
Wind Pressure Rain since
9am
mm
Weather Cloud Vis
km
Sea
Height
m
Swell
Dir  Spd
kts
Gust
kts
hPa Trend Height
m
Period
s
Dir
28/12:30pm 11.8 NW 14 19 1001.3 - 3.2 - - - - - - -
28/12:00pm 11.2 NW 15 18 1001.7 - 3.2 Recent precip. - - - - - -
28/11:30am 11.0 NW 15 19 1002.2 - 2.8 - - - - - - -
28/11:00am 10.6 WNW 12 17 1002.6 - 2.0 - - - - - - -
28/10:30am 11.2 W 12 17 1002.5 - 1.0 - - - - - - -
28/10:00am 11.6 W 12 17 1002.1 - 0.4 - - - - - - -
28/09:30am 10.9 W 14 19 1002.0 - 0.4 - - - - - - -
28/09:00am 11.6 WNW 16 23 1001.8 - 6.2 Recent precip. - - - - - -
28/08:30am 12.1 WNW 16 21 1001.8 - 5.8 - - - - - - -
28/08:00am 11.6 WNW 15 22 1001.9 - 4.2 - - - - - - -
28/07:57am 11.7 WNW 16 23 1001.9 - 4.0 - - - - - - -
28/07:31am 13.4 NNW 23 39 1001.4 - 2.6 - - - - - - -
28/07:30am 13.3 NNW 23 27 1001.5 - 2.6 - - - - - - -
28/07:00am 12.7 NW 16 22 1001.9 - 2.6 - - - - - - -
28/06:30am 12.8 NW 12 15 1002.1 - 2.2 - - - - - - -
28/06:00am 12.7 NW 15 20 1002.5 - 2.2 Rain - - - - - -
28/05:30am 12.8 WNW 12 15 1002.5 - 1.6 - - - - - - -
28/05:00am 12.6 WNW 11 16 1002.8 - 1.4 - - - - - - -
28/04:30am 12.8 W 14 21 1003.3 - 0.2 - - - - - - -
28/04:04am 14.8 NW 20 29 1003.2 - 0.2 - - - - - - -
28/04:00am 15.2 NNW 20 29 1002.8 - 0.2 - - - - - - -
28/03:30am 14.7 N 16 19 1002.9 - 0.2 - - - - - - -
28/03:00am 14.7 N 17 21 1003.5 - 0.2 Recent precip. - - - - - -
28/02:30am 14.6 NNW 22 27 1004.1 - 0.2 - - - - - - -
28/02:00am 14.6 NW 23 27 1004.9 - 0.0 - - - - - - -
28/01:30am 15.5 NNW 20 25 1005.3 - 0.0 - - - - - - -
28/01:00am 15.7 NNW 20 24 1005.6 - 0.0 - - - - - - -
28/12:30am 15.3 N 15 21 1006.0 - 0.0 - - - - - - -
28/12:00am 15.3 N 14 18 1006.7 - 0.0 - - - - - - -
 
Date/Time
EST
Temp
°C
Wind Pressure Rain since
9am
mm
Weather Cloud Vis
km
Sea
Height
m
Swell
Dir  Spd
kts
Gust
kts
hPa Trend Height
m
Period
s
Dir
27/11:30pm 15.1 N 15 17 1007.1 - 0.0 - - - - - - -
27/11:00pm 15.2 N 15 17 1007.6 - 0.0 - - - - - - -
27/10:30pm 15.0 N 15 17 1008.1 - 0.0 - - - - - - -
27/10:00pm 14.9 N 16 18 1008.6 - 0.0 - - - - - - -
27/09:30pm 15.0 N 16 19 1009.0 - 0.0 - - - - - - -
27/09:00pm 15.1 N 16 19 1009.3 - 0.0 - - - - - - -
27/08:30pm 14.9 N 16 19 1009.5 - 0.0 - - - - - - -
27/08:00pm 14.8 N 16 19 1009.7 - 0.0 - - - - - - -
27/07:30pm 14.7 N 14 17 1010.2 - 0.0 - - - - - - -
27/07:00pm 15.1 N 14 18 1010.4 - 0.0 - - - - - - -
27/06:30pm 15.5 N 18 22 1010.5 - 0.0 - - - - - - -
27/06:00pm 15.5 NNW 18 21 1010.7 - 0.0 - - - - - - -
27/05:30pm 15.5 NNW 18 22 1010.7 - 0.0 - - - - - - -
27/05:00pm 15.6 NNW 20 23 1010.8 - 0.0 - - - - - - -
27/04:30pm 15.5 NNW 19 23 1010.9 - 0.0 - - - - - - -
27/04:00pm 15.7 NNW 21 24 1011.2 - 0.0 - - - - - - -
27/03:30pm 15.6 NNW 21 24 1011.2 - 0.0 - - - - - - -
27/03:00pm 16.0 NNW 19 23 1011.4 - 0.0 - - - - - - -
27/02:30pm 15.9 NNW 21 26 1011.5 - 0.0 - - - - - - -
27/02:00pm 15.9 NNW 21 24 1012.0 - 0.0 - - - - - - -
27/01:30pm 16.0 NNW 22 27 1012.4 - 0.0 - - - - - - -
27/01:00pm 16.0 NNW 23 26 1013.0 - 0.0 - - - - - - -
27/12:30pm 16.1 NNW 19 23 1013.6 - 0.0 - - - - - - -
27/12:00pm 16.3 NNW 20 25 1014.1 - 0.0 - - - - - - -
27/11:30am 16.2 NNW 19 23 1014.7 - 0.0 - - - - - - -
27/11:00am 15.6 NNW 19 24 1015.2 - 0.0 - - - - - - -
27/10:30am 15.7 NNW 21 25 1015.7 - 0.0 - - - - - - -
27/10:00am 15.4 NNW 20 24 1015.8 - 0.0 - - - - - - -
27/09:30am 15.3 NNW 20 23 1015.8 - 0.0 - - - - - - -
27/09:00am 15.2 NNW 20 25 1016.2 - 0.0 - - - - - - -
27/08:30am 14.8 NNW 22 28 1016.2 - 0.0 - - - - - - -
27/08:00am 14.5 NNW 22 27 1016.3 - 0.0 - - - - - - -
27/07:30am 14.4 NNW 20 24 1016.3 - 0.0 - - - - - - -
27/07:00am 14.3 N 19 24 1016.4 - 0.0 - - - - - - -
27/06:30am 14.0 N 20 24 1016.5 - 0.0 - - - - - - -
27/06:00am 13.8 N 18 23 1016.6 - 0.0 - - - - - - -
27/05:30am 13.4 N 15 18 1016.9 - 0.0 - - - - - - -
27/05:00am 13.3 N 16 19 1016.9 - 0.0 - - - - - - -
27/04:30am 13.5 N 16 21 1017.1 - 0.0 - - - - - - -
27/04:00am 13.6 NNW 16 21 1017.4 - 0.0 - - - - - - -
27/03:30am 13.2 N 14 18 1017.4 - 0.0 - - - - - - -
27/03:00am 13.5 N 14 17 1018.0 - 0.0 - - - - - - -
27/02:30am 13.8 NW 13 16 1018.5 - 0.0 - - - - - - -
27/02:00am 13.7 NW 15 18 1018.6 - 0.0 - - - - - - -
27/01:30am 13.5 NW 13 17 1018.6 - 0.0 - - - - - - -
27/01:00am 13.6 NW 15 17 1018.9 - 0.0 - - - - - - -
27/12:30am 14.0 NW 12 17 1019.0 - 0.0 - - - - - - -
27/12:00am 13.8 NNW 12 14 1019.3 - 0.0 - - - - - - -
 
Date/Time
EST
Temp
°C
Wind Pressure Rain since
9am
mm
Weather Cloud Vis
km
Sea
Height
m
Swell
Dir  Spd
kts
Gust
kts
hPa Trend Height
m
Period
s
Dir
26/11:30pm 13.5 NW 12 18 1019.6 - 0.0 - - - - - - -
26/11:00pm 13.4 NW 13 18 1019.7 - 0.0 - - - - - - -
26/10:30pm 13.4 NW 11 16 1019.9 - 0.0 - - - - - - -
26/10:00pm 13.3 WNW 11 16 1020.0 - 0.0 - - - - - - -
26/09:30pm 13.2 WNW 12 19 1020.0 - 0.0 - - - - - - -
26/09:00pm 13.0 WNW 10 15 1019.9 - 0.0 - - - - - - -
26/08:30pm 13.0 WNW 10 14 1019.9 - 0.0 - - - - - - -
26/08:00pm 13.1 WNW 9 12 1019.8 - 0.0 - - - - - - -
26/07:30pm 12.1 W 6 9 1019.6 - 0.0 - - - - - - -
26/07:00pm 11.7 W 7 11 1019.4 - 0.0 - - - - - - -
26/06:30pm 11.6 WSW 6 8 1019.3 - 0.0 - - - - - - -
26/06:00pm 12.0 W 9 13 1019.1 - 0.0 - - - - - - -
26/05:30pm 12.3 W 10 13 1019.0 - 0.0 - - - - - - -
26/05:00pm 12.5 W 12 15 1018.9 - 0.0 - - - - - - -
26/04:30pm 12.7 W 10 15 1018.8 - 0.0 - - - - - - -
26/04:00pm 13.3 W 9 14 1018.7 - 0.0 - - - - - - -
26/03:30pm 13.8 W 13 19 1018.5 - 0.0 - - - - - - -
26/03:00pm 14.0 W 12 18 1018.3 - 0.0 - - - - - - -
26/02:30pm 14.2 W 12 18 1018.5 - 0.0 - - - - - - -
26/02:00pm 14.5 W 14 19 1018.6 - 0.0 - - - - - - -
26/01:30pm 14.4 W 13 19 1018.7 - 0.0 - - - - - - -
26/01:00pm 14.4 W 12 18 1018.8 - 0.0 - - - - - - -
26/12:30pm 14.2 W 12 17 1019.0 - 0.0 - - - - - - -
26/12:00pm 13.9 W 13 19 1019.1 - 0.0 - - - - - - -
26/11:30am 13.5 WSW 13 19 1019.4 - 0.0 - - - - - - -
26/11:00am 13.2 WSW 11 15 1019.6 - 0.0 - - - - - - -
26/10:30am 13.0 W 11 17 1019.6 - 0.0 - - - - - - -
26/10:00am 12.8 WSW 9 14 1019.5 - 0.0 - - - - - - -
26/09:30am 12.2 WSW 9 15 1019.4 - 0.0 - - - - - - -
26/09:00am 11.6 WSW 8 13 1019.2 - 0.6 - - - - - - -
26/08:30am 11.0 WSW 8 13 1019.0 - 0.6 - - - - - - -
26/08:00am 10.9 WSW 7 13 1018.6 - 0.6 - - - - - - -
26/07:30am 10.6 WSW 10 15 1018.1 - 0.6 - - - - - - -
26/07:00am 10.7 WSW 9 13 1017.8 - 0.6 - - - - - - -
26/06:30am 10.8 WSW 10 16 1017.2 - 0.6 - - - - - - -
26/06:00am 10.9 WSW 10 15 1016.7 - 0.6 - - - - - - -
26/05:30am 10.8 WSW 9 13 1016.3 - 0.6 - - - - - - -
26/05:00am 11.0 WSW 9 13 1015.9 - 0.6 - - - - - - -
26/04:30am 11.6 WSW 8 11 1015.4 - 0.6 - - - - - - -
26/04:00am 13.0 W 12 19 1015.0 - 0.6 - - - - - - -
26/03:30am 13.1 W 15 20 1014.7 - 0.6 - - - - - - -
26/03:00am 13.4 W 14 21 1014.5 - 0.6 - - - - - - -
26/02:30am 13.4 W 15 19 1014.4 - 0.6 - - - - - - -
26/02:00am 13.6 W 17 21 1014.2 - 0.6 - - - - - - -
26/01:30am 13.9 W 19 24 1014.1 - 0.6 - - - - - - -
26/01:00am 13.7 W 14 20 1014.1 - 0.6 - - - - - - -
26/12:30am 13.8 W 14 19 1014.0 - 0.6 - - - - - - -
26/12:00am 14.0 W 15 22 1013.8 - 0.6 - - - - - - -
 
Date/Time
EST
Temp
°C
Wind Pressure Rain since
9am
mm
Weather Cloud Vis
km
Sea
Height
m
Swell
Dir  Spd
kts
Gust
kts
hPa Trend Height
m
Period
s
Dir
25/11:30pm 14.5 W 16 22 1013.8 - 0.6 - - - - - - -
25/11:00pm 14.4 W 13 17 1013.3 - 0.6 - - - - - - -
25/10:30pm 14.9 WNW 17 23 1013.1 - 0.6 - - - - - - -
25/10:00pm 15.1 WNW 15 19 1012.9 - 0.6 - - - - - - -
25/09:30pm 14.8 WNW 18 27 1012.7 - 0.6 - - - - - - -
25/09:00pm 15.2 NW 20 28 1012.6 - 0.6 - - - - - - -
25/08:30pm 15.1 NW 21 29 1012.7 - 0.6 - - - - - - -
25/08:01pm 15.2 WNW 22 32 1012.7 - 0.6 - - - - - - -
25/08:00pm 15.2 WNW 23 32 1012.7 - 0.6 - - - - - - -
25/07:37pm 14.9 NW 20 31 1012.8 - 0.6 - - - - - - -
25/07:30pm 14.7 NW 21 30 1012.8 - 0.6 - - - - - - -
25/07:08pm 15.4 NW 19 29 1013.0 - 0.4 - - - - - - -
25/07:00pm 15.2 NW 20 29 1013.0 - 0.4 - - - - - - -
25/06:30pm 15.2 WNW 19 27 1013.3 - 0.4 - - - - - - -
25/06:00pm 15.0 WNW 21 29 1013.2 - 0.4 - - - - - - -
25/05:30pm 14.9 WNW 20 26 1013.1 - 0.4 - - - - - - -
25/05:00pm 14.9 WNW 21 27 1013.0 - 0.4 - - - - - - -
25/04:30pm 14.4 WNW 21 28 1013.2 - 0.4 - - - - - - -
25/04:00pm 13.9 WNW 18 25 1013.2 - 0.4 - - - - - - -
25/03:30pm 13.5 WNW 17 23 1013.4 - 0.4 - - - - - - -
25/03:14pm 13.2 W 15 27 1013.7 - 0.4 - - - - - - -
25/03:00pm 13.8 W 15 22 1013.8 - 0.4 Recent precip. - - - - - -
25/02:30pm 13.9 WNW 16 22 1013.9 - 0.0 - - - - - - -
25/02:00pm 15.1 WNW 19 25 1014.0 - 0.0 - - - - - - -
25/01:30pm 16.2 WNW 16 21 1014.2 - 0.0 - - - - - - -
25/01:00pm 16.3 W 8 14 1014.6 - 0.0 - - - - - - -

Other Formats:

Comma delimited format used in spreadsheet applications
http://www.bom.gov.au/fwo/IDT60701/IDT60701.95985.axf

JavaScript Object Notation format (JSON) in row-major order
http://www.bom.gov.au/fwo/IDT60701/IDT60701.95985.json